createdAt,value
2023-01-25T00:00:49.648Z,101972.84
2023-01-25T00:03:16.315Z,101976.34
2023-01-25T00:05:42.966Z,101977.22
2023-01-25T00:08:09.591Z,101982.56
2023-01-25T00:10:36.205Z,101983.47
2023-01-25T00:13:02.850Z,101988.75
2023-01-25T00:15:29.436Z,101980.81
2023-01-25T00:17:55.984Z,101983.41
2023-01-25T00:20:22.599Z,101986.94
2023-01-25T00:22:49.211Z,101987.88
2023-01-25T00:25:15.807Z,101990.53
2023-01-25T00:27:42.502Z,101993.19
2023-01-25T00:30:09.764Z,101994.13
2023-01-25T00:32:53.100Z,101988.88
2023-01-25T00:35:19.726Z,101992.41
2023-01-25T00:37:52.901Z,101993.28
2023-01-25T00:40:19.582Z,101987.09
2023-01-25T00:42:46.221Z,101993.22
2023-01-25T00:45:13.253Z,101988.84
2023-01-25T00:47:39.963Z,101987.06
2023-01-25T00:50:07.921Z,101994.06
2023-01-25T00:52:34.668Z,101985.22
2023-01-25T00:55:02.901Z,101989.56
2023-01-25T00:57:29.694Z,101991.28
2023-01-25T00:59:56.331Z,101993.00
2023-01-25T01:02:22.913Z,102000.06
2023-01-25T01:04:49.821Z,102000.13
2023-01-25T01:07:16.426Z,101999.28
2023-01-25T01:09:43.152Z,102001.97
2023-01-25T01:12:09.809Z,101999.41
2023-01-25T01:14:36.589Z,101998.56
2023-01-25T01:17:03.441Z,102012.63
2023-01-25T01:19:30.848Z,102006.53
2023-01-25T01:21:57.403Z,102005.63
2023-01-25T01:24:24.034Z,102009.19
2023-01-25T01:26:50.693Z,102011.00
2023-01-25T01:29:17.359Z,102009.22
2023-01-25T01:31:44.021Z,102007.50
2023-01-25T01:34:13.538Z,102008.44
2023-01-25T01:36:40.185Z,102012.81
2023-01-25T01:39:06.737Z,102005.84
2023-01-25T01:41:33.468Z,102013.75
2023-01-25T01:44:00.036Z,102012.91
2023-01-25T01:46:38.518Z,102014.66
2023-01-25T01:49:10.167Z,102006.78
2023-01-25T01:51:58.490Z,102013.81
2023-01-25T01:54:34.492Z,102003.25
2023-01-25T01:57:14.915Z,102001.53
2023-01-25T01:59:56.872Z,102004.16
2023-01-25T02:02:26.290Z,102001.53
2023-01-25T02:04:57.538Z,101994.50
2023-01-25T02:07:33.946Z,101996.25
2023-01-25T02:10:02.850Z,102001.53
2023-01-25T02:12:29.886Z,101992.75
2023-01-25T02:14:56.468Z,101998.00
2023-01-25T02:17:28.327Z,101986.56
2023-01-25T02:20:30.417Z,101982.16
2023-01-25T02:23:04.357Z,101991.84
2023-01-25T02:25:31.033Z,101980.41
2023-01-25T02:28:07.770Z,101989.19
2023-01-25T02:30:34.365Z,101981.28
2023-01-25T02:33:03.912Z,101982.16
2023-01-25T02:36:00.283Z,101976.88
2023-01-25T02:38:29.876Z,101975.97
2023-01-25T02:41:02.455Z,101971.56
2023-01-25T02:43:32.689Z,101965.34
2023-01-25T02:46:27.487Z,101957.38
2023-01-25T02:48:57.699Z,101963.53
2023-01-25T02:51:26.453Z,101959.13
2023-01-25T02:53:53.639Z,101954.75
2023-01-25T02:56:20.673Z,101950.38
2023-01-25T02:58:47.361Z,101948.63
2023-01-25T03:01:14.924Z,101950.38
2023-01-25T03:03:42.047Z,101946.03
2023-01-25T03:06:09.038Z,101940.72
2023-01-25T03:08:35.790Z,101947.78
2023-01-25T03:11:03.953Z,101947.78
2023-01-25T03:13:30.818Z,101951.31
2023-01-25T03:16:04.083Z,101942.56
2023-01-25T03:18:30.747Z,101943.47
2023-01-25T03:20:57.432Z,101940.81
2023-01-25T03:23:24.028Z,101941.72
2023-01-25T03:25:50.616Z,101939.13
2023-01-25T03:28:17.259Z,101936.50
2023-01-25T03:30:44.091Z,101940.03
2023-01-25T03:33:10.731Z,101934.81
2023-01-25T03:35:37.289Z,101930.44
2023-01-25T03:38:03.863Z,101940.97
2023-01-25T03:40:30.431Z,101939.22
2023-01-25T03:42:57.059Z,101946.28
2023-01-25T03:45:23.632Z,101943.59
2023-01-25T03:47:50.241Z,101943.59
2023-01-25T03:50:16.903Z,101941.81
2023-01-25T03:53:32.122Z,101943.56
2023-01-25T03:56:10.610Z,101938.28
2023-01-25T03:58:39.124Z,101933.91
2023-01-25T04:01:07.173Z,101933.91
2023-01-25T04:03:34.575Z,101938.28
2023-01-25T04:06:01.950Z,101933.03
2023-01-25T04:08:28.752Z,101928.66
2023-01-25T04:10:57.748Z,101942.72
2023-01-25T04:13:25.273Z,101933.06
2023-01-25T04:15:52.451Z,101936.59
2023-01-25T04:18:19.368Z,101940.13
2023-01-25T04:20:46.391Z,101940.97
2023-01-25T04:23:13.119Z,101943.59
2023-01-25T04:25:39.777Z,101944.50
2023-01-25T04:28:06.492Z,101948.81
2023-01-25T04:30:33.096Z,101945.28
2023-01-25T04:33:06.755Z,101950.53
2023-01-25T04:35:33.396Z,101950.47
2023-01-25T04:38:00.466Z,101946.03
2023-01-25T04:40:27.551Z,101950.41
2023-01-25T04:42:54.222Z,101946.88
2023-01-25T04:45:21.066Z,101945.94
2023-01-25T04:47:47.670Z,101951.16
2023-01-25T04:50:14.458Z,101949.41
2023-01-25T04:52:41.179Z,101945.00
2023-01-25T04:55:08.333Z,101947.63
2023-01-25T04:57:35.101Z,101944.94
2023-01-25T05:00:01.818Z,101939.59
2023-01-25T05:02:28.527Z,101941.34
2023-01-25T05:04:55.328Z,101951.88
2023-01-25T05:07:22.091Z,101943.06
2023-01-25T05:09:48.697Z,101941.25
2023-01-25T05:12:15.376Z,101943.00
2023-01-25T05:14:41.968Z,101940.31
2023-01-25T05:17:09.089Z,101950.84
2023-01-25T05:19:36.037Z,101953.44
2023-01-25T05:22:07.471Z,101953.44
2023-01-25T05:24:35.505Z,101956.94
2023-01-25T05:27:06.259Z,101957.75
2023-01-25T05:29:37.917Z,101948.91
2023-01-25T05:32:07.045Z,101950.66
2023-01-25T05:34:34.759Z,101938.28
2023-01-25T05:37:02.219Z,101957.59
2023-01-25T05:39:28.898Z,101953.16
2023-01-25T05:41:55.531Z,101952.28
2023-01-25T05:44:22.912Z,101947.88
2023-01-25T05:46:52.024Z,101941.69
2023-01-25T05:49:19.296Z,101939.94
2023-01-25T05:51:46.880Z,101941.69
2023-01-25T05:54:15.849Z,101941.63
2023-01-25T05:56:43.621Z,101942.44
2023-01-25T05:59:11.625Z,101945.91
2023-01-25T06:01:38.458Z,101949.38
2023-01-25T06:04:05.167Z,101945.81
2023-01-25T06:06:31.850Z,101943.16
2023-01-25T06:08:58.499Z,101950.13
2023-01-25T06:11:25.034Z,101945.72
2023-01-25T06:13:51.917Z,101944.78
2023-01-25T06:16:19.174Z,101954.44
2023-01-25T06:18:46.048Z,101953.50
2023-01-25T06:21:13.132Z,101956.13
2023-01-25T06:23:40.217Z,101956.06
2023-01-25T06:26:10.387Z,101963.06
2023-01-25T06:28:37.714Z,101963.00
2023-01-25T06:31:13.271Z,101967.34
2023-01-25T06:33:41.572Z,101970.81
2023-01-25T06:36:12.547Z,101974.34
2023-01-25T06:38:39.429Z,101969.00
2023-01-25T06:41:07.618Z,101974.28
2023-01-25T06:43:35.003Z,101968.94
2023-01-25T06:46:06.691Z,101965.34
2023-01-25T06:48:33.734Z,101967.00
2023-01-25T06:51:03.667Z,101968.72
2023-01-25T06:53:32.618Z,101968.59
2023-01-25T06:56:04.502Z,101974.72
2023-01-25T06:58:32.194Z,101964.94
2023-01-25T07:01:04.621Z,101965.72
2023-01-25T07:03:32.261Z,101961.22
2023-01-25T07:05:59.573Z,101962.81
2023-01-25T07:08:26.235Z,101968.78
2023-01-25T07:10:58.355Z,101967.78
2023-01-25T07:13:26.401Z,101970.28
2023-01-25T07:15:57.813Z,101965.72
2023-01-25T07:18:25.579Z,101964.66
2023-01-25T07:20:52.488Z,101956.59
2023-01-25T07:23:19.913Z,101955.56
2023-01-25T07:25:48.172Z,101953.66
2023-01-25T07:28:15.629Z,101960.53
2023-01-25T07:30:42.763Z,101955.97
2023-01-25T07:33:10.897Z,101956.66
2023-01-25T07:35:37.956Z,101949.44
2023-01-25T07:38:04.849Z,101959.84
2023-01-25T07:40:31.428Z,101962.31
2023-01-25T07:42:58.807Z,101960.41
2023-01-25T07:45:31.688Z,101951.41
2023-01-25T07:47:59.085Z,101960.06
2023-01-25T07:50:29.172Z,101954.63
2023-01-25T07:52:55.764Z,101958.03
2023-01-25T07:55:22.429Z,101962.25
2023-01-25T07:57:49.196Z,101957.72
2023-01-25T08:00:16.121Z,101954.97
2023-01-25T08:02:43.322Z,101959.25
2023-01-25T08:05:10.872Z,101954.75
2023-01-25T08:07:37.841Z,101959.06
2023-01-25T08:10:07.043Z,101957.22
2023-01-25T08:12:34.382Z,101953.59
2023-01-25T08:15:01.226Z,101959.69
2023-01-25T08:17:33.930Z,101956.94
2023-01-25T08:20:01.617Z,101952.50
2023-01-25T08:22:28.459Z,101956.84
2023-01-25T08:24:55.103Z,101953.19
2023-01-25T08:27:21.768Z,101956.69
2023-01-25T08:29:51.042Z,101952.22
2023-01-25T08:32:17.710Z,101951.22
2023-01-25T08:34:44.284Z,101952.94
2023-01-25T08:37:10.924Z,101941.38
2023-01-25T08:39:37.852Z,101952.72
2023-01-25T08:42:06.452Z,101945.56
2023-01-25T08:44:33.168Z,101941.84
2023-01-25T08:46:59.757Z,101939.13
2023-01-25T08:49:27.667Z,101931.03
2023-01-25T08:51:54.256Z,101941.53
2023-01-25T08:54:21.084Z,101940.53
2023-01-25T08:56:47.686Z,101930.69
2023-01-25T08:59:14.261Z,101930.53
2023-01-25T09:01:41.003Z,101933.00
2023-01-25T09:04:07.574Z,101925.69
2023-01-25T09:06:34.157Z,101924.66
2023-01-25T09:09:00.788Z,101929.00
2023-01-25T09:11:27.677Z,101928.00
2023-01-25T09:13:54.383Z,101920.84
2023-01-25T09:16:30.914Z,101923.47
2023-01-25T09:19:00.007Z,101920.66
2023-01-25T09:21:27.233Z,101917.91
2023-01-25T09:24:09.484Z,101917.06
2023-01-25T09:26:42.922Z,101919.56
2023-01-25T09:29:11.979Z,101920.44
2023-01-25T09:31:45.641Z,101927.50
2023-01-25T09:34:13.934Z,101914.16
2023-01-25T09:36:40.821Z,101921.22
2023-01-25T09:39:07.774Z,101921.19
2023-01-25T09:41:51.751Z,101917.56
2023-01-25T09:44:36.299Z,101919.34
2023-01-25T09:47:11.855Z,101915.78
2023-01-25T09:50:09.852Z,101908.66
2023-01-25T09:53:14.033Z,101899.75
2023-01-25T09:55:41.638Z,101899.63
2023-01-25T09:58:18.293Z,101895.94
2023-01-25T10:00:48.145Z,101893.00
2023-01-25T10:03:28.811Z,101889.22
2023-01-25T10:05:59.821Z,101882.06
2023-01-25T10:08:42.968Z,101873.84
2023-01-25T10:11:17.183Z,101870.19
2023-01-25T10:13:44.317Z,101867.34
2023-01-25T10:16:26.138Z,101865.50
2023-01-25T10:19:20.032Z,101860.22
2023-01-25T10:22:24.129Z,101864.56
2023-01-25T10:25:28.976Z,101856.50
2023-01-25T10:28:13.912Z,101847.59
2023-01-25T10:31:19.828Z,101852.72
2023-01-25T10:33:48.278Z,101849.28
2023-01-25T10:36:17.741Z,101847.44
2023-01-25T10:38:47.547Z,101838.56
2023-01-25T10:41:28.422Z,101831.44
2023-01-25T10:44:21.080Z,101829.69
2023-01-25T10:46:53.683Z,101835.81
2023-01-25T10:49:29.342Z,101829.53
2023-01-25T10:51:56.669Z,101832.34
2023-01-25T10:54:23.959Z,101823.59
2023-01-25T10:56:51.193Z,101829.94
2023-01-25T10:59:23.503Z,101836.97
2023-01-25T11:01:50.186Z,101830.88
2023-01-25T11:04:33.334Z,101820.94
2023-01-25T11:07:00.666Z,101812.78
2023-01-25T11:09:38.592Z,101803.78
2023-01-25T11:12:21.683Z,101799.28
2023-01-25T11:14:49.884Z,101801.81
2023-01-25T11:17:31.445Z,101793.75
2023-01-25T11:20:20.604Z,101789.31
2023-01-25T11:22:53.457Z,101790.84
2023-01-25T11:25:32.567Z,101787.34
2023-01-25T11:28:14.643Z,101778.44
2023-01-25T11:30:41.371Z,101771.19
2023-01-25T11:33:13.082Z,101769.41
2023-01-25T11:36:09.691Z,101763.22
2023-01-25T11:38:39.733Z,101761.44
2023-01-25T11:41:14.906Z,101747.94
2023-01-25T11:43:50.365Z,101745.25
2023-01-25T11:46:40.645Z,101742.41
2023-01-25T11:49:17.289Z,101729.09
2023-01-25T11:51:55.756Z,101730.72
2023-01-25T11:54:45.076Z,101711.09
2023-01-25T11:57:40.530Z,101705.81
2023-01-25T12:00:25.866Z,101698.63
2023-01-25T12:02:58.990Z,101700.38
2023-01-25T12:05:51.263Z,101694.94
2023-01-25T12:08:17.795Z,101696.72
2023-01-25T12:10:47.090Z,101682.50
2023-01-25T12:13:32.428Z,101681.38
2023-01-25T12:16:20.803Z,101683.81
2023-01-25T12:19:10.264Z,101681.88
2023-01-25T12:21:48.883Z,101676.63
2023-01-25T12:24:33.235Z,101667.59
2023-01-25T12:27:31.839Z,101667.72
2023-01-25T12:30:17.641Z,101661.63
2023-01-25T12:32:59.499Z,101667.84
2023-01-25T12:35:42.976Z,101666.09
2023-01-25T12:38:19.334Z,101667.72
2023-01-25T12:40:45.900Z,101665.91
2023-01-25T12:43:42.044Z,101667.53
2023-01-25T12:46:20.693Z,101655.84
2023-01-25T12:48:53.337Z,101659.31
2023-01-25T12:51:24.422Z,101655.69
2023-01-25T12:53:52.659Z,101650.25
2023-01-25T12:56:40.727Z,101652.97
2023-01-25T12:59:20.453Z,101645.78
2023-01-25T13:01:52.843Z,101643.25
2023-01-25T13:04:53.351Z,101648.84
2023-01-25T13:07:28.319Z,101638.19
2023-01-25T13:10:23.802Z,101644.41
2023-01-25T13:12:51.761Z,101637.25
2023-01-25T13:15:44.166Z,101630.94
2023-01-25T13:18:29.203Z,101628.19
2023-01-25T13:20:56.820Z,101625.59
2023-01-25T13:23:43.791Z,101631.09
2023-01-25T13:26:22.276Z,101621.38
2023-01-25T13:28:51.021Z,101625.59
2023-01-25T13:31:52.121Z,101614.75
2023-01-25T13:34:39.035Z,101607.56
2023-01-25T13:37:20.833Z,101610.22
2023-01-25T13:39:51.800Z,101607.00
2023-01-25T13:42:37.148Z,101606.88
2023-01-25T13:45:18.835Z,101606.75
2023-01-25T13:48:11.012Z,101606.88
2023-01-25T13:50:44.040Z,101605.16
2023-01-25T13:53:16.484Z,101612.03
2023-01-25T13:55:49.185Z,101607.56
2023-01-25T13:58:28.718Z,101599.41
2023-01-25T14:00:56.946Z,101597.72
2023-01-25T14:03:29.134Z,101597.63
2023-01-25T14:05:58.382Z,101594.91
2023-01-25T14:08:26.866Z,101594.91
2023-01-25T14:10:54.506Z,101592.41
2023-01-25T14:13:21.107Z,101589.66
2023-01-25T14:15:59.293Z,101594.31
2023-01-25T14:18:38.284Z,101585.81
2023-01-25T14:21:22.038Z,101596.38
2023-01-25T14:23:49.244Z,101593.69
2023-01-25T14:26:22.532Z,101593.63
2023-01-25T14:29:01.186Z,101596.41
2023-01-25T14:31:34.473Z,101585.56
2023-01-25T14:34:04.179Z,101589.91
2023-01-25T14:36:34.244Z,101596.09
2023-01-25T14:39:02.577Z,101590.84
2023-01-25T14:41:37.846Z,101591.91
2023-01-25T14:44:11.280Z,101588.44
2023-01-25T14:46:39.866Z,101584.97
2023-01-25T14:49:15.488Z,101584.22
2023-01-25T14:51:48.551Z,101584.41
2023-01-25T14:54:21.412Z,101583.81
2023-01-25T14:56:57.890Z,101580.22
2023-01-25T14:59:47.790Z,101576.66
2023-01-25T15:02:17.604Z,101573.34
2023-01-25T15:05:11.015Z,101577.84
2023-01-25T15:07:49.175Z,101579.81
2023-01-25T15:10:20.936Z,101575.47
2023-01-25T15:13:14.499Z,101578.28
2023-01-25T15:16:00.193Z,101580.13
2023-01-25T15:18:50.626Z,101573.06
2023-01-25T15:21:32.089Z,101575.97
2023-01-25T15:24:12.362Z,101584.00
2023-01-25T15:26:40.269Z,101582.38
2023-01-25T15:29:15.707Z,101572.75
2023-01-25T15:31:43.753Z,101575.47
2023-01-25T15:34:26.198Z,101575.63
2023-01-25T15:36:52.792Z,101575.03
2023-01-25T15:39:20.206Z,101572.41
2023-01-25T15:41:47.957Z,101568.84
2023-01-25T15:44:15.473Z,101572.41
2023-01-25T15:46:46.277Z,101569.94
2023-01-25T15:49:25.479Z,101577.13
2023-01-25T15:51:52.190Z,101572.84
2023-01-25T15:54:18.860Z,101574.75
2023-01-25T15:56:54.870Z,101579.19
2023-01-25T15:59:21.563Z,101578.34
2023-01-25T16:01:48.198Z,101566.81
2023-01-25T16:04:14.882Z,101566.03
2023-01-25T16:06:43.556Z,101565.16
2023-01-25T16:09:18.552Z,101556.19
2023-01-25T16:11:47.264Z,101560.56
2023-01-25T16:14:13.981Z,101563.19
2023-01-25T16:16:44.767Z,101560.47
2023-01-25T16:19:17.339Z,101558.84
2023-01-25T16:21:44.038Z,101560.75
2023-01-25T16:24:11.622Z,101553.75
2023-01-25T16:26:44.472Z,101557.28
2023-01-25T16:29:11.800Z,101554.69
2023-01-25T16:31:38.467Z,101546.81
2023-01-25T16:34:05.134Z,101555.72
2023-01-25T16:36:33.838Z,101557.44
2023-01-25T16:39:24.306Z,101562.91
2023-01-25T16:41:51.150Z,101556.69
2023-01-25T16:44:18.122Z,101555.84
2023-01-25T16:46:45.017Z,101553.28
2023-01-25T16:49:16.882Z,101556.13
2023-01-25T16:51:45.384Z,101560.66
2023-01-25T16:54:12.483Z,101555.47
2023-01-25T16:56:39.177Z,101559.94
2023-01-25T16:59:06.731Z,101551.13
2023-01-25T17:01:33.390Z,101552.94
2023-01-25T17:03:59.983Z,101553.88
2023-01-25T17:06:33.503Z,101542.31
2023-01-25T17:09:16.412Z,101538.78
2023-01-25T17:11:43.902Z,101542.38
2023-01-25T17:14:15.036Z,101544.16
2023-01-25T17:16:42.118Z,101541.56
2023-01-25T17:19:12.618Z,101546.00
2023-01-25T17:21:39.632Z,101537.16
2023-01-25T17:24:06.610Z,101533.63
2023-01-25T17:26:33.372Z,101533.63
2023-01-25T17:29:02.772Z,101535.47
2023-01-25T17:31:32.745Z,101530.34
2023-01-25T17:34:03.609Z,101532.28
2023-01-25T17:36:30.456Z,101529.84
2023-01-25T17:39:02.009Z,101524.59
2023-01-25T17:41:28.829Z,101517.44
2023-01-25T17:43:55.397Z,101520.16
2023-01-25T17:46:26.073Z,101512.22
2023-01-25T17:48:53.832Z,101512.19
2023-01-25T17:51:22.887Z,101513.97
2023-01-25T17:53:51.200Z,101504.22
2023-01-25T17:56:19.173Z,101503.31
2023-01-25T17:58:45.956Z,101506.06
2023-01-25T18:01:21.465Z,101507.84
2023-01-25T18:03:49.741Z,101499.13
2023-01-25T18:06:19.843Z,101497.38
2023-01-25T18:08:49.043Z,101490.34
2023-01-25T18:11:18.301Z,101487.69
2023-01-25T18:13:47.547Z,101489.41
2023-01-25T18:16:15.272Z,101487.69
2023-01-25T18:18:43.475Z,101489.69
2023-01-25T18:21:13.289Z,101486.22
2023-01-25T18:23:41.183Z,101491.53
2023-01-25T18:26:16.070Z,101481.81
2023-01-25T18:28:42.611Z,101486.16
2023-01-25T18:31:10.162Z,101484.34
2023-01-25T18:33:38.366Z,101489.66
2023-01-25T18:36:05.585Z,101482.53
2023-01-25T18:38:33.376Z,101481.63
2023-01-25T18:40:59.979Z,101469.25
2023-01-25T18:43:28.105Z,101462.25
2023-01-25T18:45:56.650Z,101460.53
2023-01-25T18:48:30.884Z,101458.84
2023-01-25T18:51:06.103Z,101451.78
2023-01-25T18:53:34.251Z,101449.03
2023-01-25T18:56:21.746Z,101448.16
2023-01-25T18:58:50.125Z,101440.31
2023-01-25T19:01:22.047Z,101443.03
2023-01-25T19:03:50.408Z,101444.72
2023-01-25T19:06:18.309Z,101441.16
2023-01-25T19:08:49.707Z,101434.94
2023-01-25T19:11:19.976Z,101441.31
2023-01-25T19:13:46.783Z,101429.78
2023-01-25T19:16:17.736Z,101429.78
2023-01-25T19:18:47.099Z,101424.47
2023-01-25T19:21:15.466Z,101423.59
2023-01-25T19:23:42.473Z,101421.88
2023-01-25T19:26:12.506Z,101420.16
2023-01-25T19:28:39.521Z,101411.44
2023-01-25T19:31:08.228Z,101415.25
2023-01-25T19:33:35.607Z,101411.88
2023-01-25T19:36:04.342Z,101407.53
2023-01-25T19:38:31.986Z,101403.16
2023-01-25T19:41:10.506Z,101396.13
2023-01-25T19:43:37.207Z,101398.00
2023-01-25T19:46:24.417Z,101398.00
2023-01-25T19:48:52.923Z,101403.31
2023-01-25T19:51:22.753Z,101401.47
2023-01-25T19:53:55.529Z,101403.09
2023-01-25T19:56:22.161Z,101399.59
2023-01-25T19:58:49.636Z,101398.84
2023-01-25T20:01:19.140Z,101399.69
2023-01-25T20:03:46.148Z,101392.59
2023-01-25T20:06:14.449Z,101395.19
2023-01-25T20:08:43.358Z,101393.38
2023-01-25T20:11:21.880Z,101389.75
2023-01-25T20:13:50.468Z,101390.69
2023-01-25T20:16:18.100Z,101383.66
2023-01-25T20:18:46.849Z,101388.03
2023-01-25T20:21:16.924Z,101383.53
2023-01-25T20:23:45.266Z,101378.16
2023-01-25T20:26:14.534Z,101381.69
2023-01-25T20:28:42.958Z,101377.22
2023-01-25T20:31:31.047Z,101381.91
2023-01-25T20:33:59.960Z,101375.72
2023-01-25T20:36:28.827Z,101366.03
2023-01-25T20:38:55.834Z,101364.38
2023-01-25T20:41:23.257Z,101362.63
2023-01-25T20:43:57.645Z,101360.97
2023-01-25T20:46:25.278Z,101354.72
2023-01-25T20:48:53.575Z,101358.25
2023-01-25T20:51:21.644Z,101353.78
2023-01-25T20:53:50.126Z,101351.13
2023-01-25T20:56:18.132Z,101347.56
2023-01-25T20:58:50.357Z,101351.13
2023-01-25T21:01:23.334Z,101345.81
2023-01-25T21:03:51.192Z,101343.31
2023-01-25T21:06:18.147Z,101341.50
2023-01-25T21:08:44.828Z,101337.91
2023-01-25T21:11:13.416Z,101330.88
2023-01-25T21:13:40.005Z,101330.94
2023-01-25T21:16:15.969Z,101328.34
2023-01-25T21:18:45.649Z,101332.91
2023-01-25T21:21:17.795Z,101324.19
2023-01-25T21:23:46.573Z,101320.72
2023-01-25T21:26:18.938Z,101316.38
2023-01-25T21:28:46.525Z,101319.22
2023-01-25T21:31:15.961Z,101325.50
2023-01-25T21:33:42.952Z,101322.84
2023-01-25T21:36:11.688Z,101315.81
2023-01-25T21:38:39.330Z,101309.56
2023-01-25T21:41:07.520Z,101315.09
2023-01-25T21:43:54.488Z,101310.69
2023-01-25T21:46:25.777Z,101307.41
2023-01-25T21:49:15.842Z,101301.31
2023-01-25T21:51:50.856Z,101297.78
2023-01-25T21:54:19.787Z,101295.13
2023-01-25T21:56:48.213Z,101293.31
2023-01-25T21:59:15.300Z,101295.03
2023-01-25T22:01:43.178Z,101293.19
2023-01-25T22:04:10.646Z,101299.41
2023-01-25T22:06:37.575Z,101288.78
2023-01-25T22:09:04.634Z,101287.91
2023-01-25T22:11:31.568Z,101288.78
2023-01-25T22:13:58.159Z,101287.88
2023-01-25T22:16:24.999Z,101277.25
2023-01-25T22:18:51.560Z,101280.69
2023-01-25T22:21:28.768Z,101273.63
2023-01-25T22:23:55.373Z,101264.91
2023-01-25T22:26:24.825Z,101264.13
2023-01-25T22:28:54.287Z,101272.97
2023-01-25T22:31:25.965Z,101270.41
2023-01-25T22:33:53.751Z,101267.75
2023-01-25T22:36:22.749Z,101265.09
2023-01-25T22:38:50.199Z,101266.75
2023-01-25T22:41:25.220Z,101256.16
2023-01-25T22:43:52.722Z,101259.69
2023-01-25T22:46:22.257Z,101260.69
2023-01-25T22:48:49.654Z,101256.31
2023-01-25T22:51:23.981Z,101259.88
2023-01-25T22:53:52.004Z,101249.22
2023-01-25T22:56:22.563Z,101253.50
2023-01-25T22:58:50.107Z,101250.75
2023-01-25T23:01:18.064Z,101244.56
2023-01-25T23:03:45.504Z,101244.63
2023-01-25T23:06:15.699Z,101241.22
2023-01-25T23:08:43.401Z,101242.09
2023-01-25T23:11:21.383Z,101241.31
2023-01-25T23:14:07.574Z,101230.94
2023-01-25T23:16:36.099Z,101230.19
2023-01-25T23:19:04.401Z,101224.88
2023-01-25T23:21:31.902Z,101227.56
2023-01-25T23:24:03.009Z,101226.81
2023-01-25T23:26:39.028Z,101218.88
2023-01-25T23:29:08.207Z,101222.31
2023-01-25T23:31:35.276Z,101221.28
2023-01-25T23:34:04.222Z,101218.59
2023-01-25T23:36:34.092Z,101212.34
2023-01-25T23:39:01.220Z,101212.53
2023-01-25T23:41:29.514Z,101203.75
2023-01-25T23:43:56.424Z,101199.28
2023-01-25T23:46:24.061Z,101196.50
2023-01-25T23:48:51.341Z,101191.19
2023-01-25T23:51:20.057Z,101187.69
2023-01-25T23:53:47.220Z,101187.72
2023-01-25T23:56:17.281Z,101178.84
2023-01-25T23:58:44.649Z,101184.16
